Time;durP1;ratioP1;P1;durP2;ratioP2;P2;SDS_P1;SDS_P2;PMS_P1;PMS_P2;Temp;Humidity;BMP_temperature;BMP_pressure;BME280_temperature;BME280_humidity;BME280_pressure;Samples;Min_cycle;Max_cycle;Signal;HPM_P1;HPM_P2
2022/10/09 00:00:01;;;;;;;49.35;33.22;;;;;;;28.10;70.81;101051.69;5015614;28;66591;-38
2022/10/09 00:02:39;;;;;;;49.17;34.72;;;;;;;28.32;71.00;101072.16;5017179;28;69731;-38
2022/10/09 00:05:10;;;;;;;56.35;36.75;;;;;;;28.36;71.16;101061.81;5013921;28;66271;-38
2022/10/09 00:07:41;;;;;;;49.80;35.58;;;;;;;28.39;72.67;101073.06;5018207;28;69441;-38
2022/10/09 00:10:11;;;;;;;42.15;34.30;;;;;;;28.42;71.04;101088.88;4998955;28;66688;-39
2022/10/09 00:12:41;;;;;;;47.83;35.10;;;;;;;28.46;73.89;101076.63;5011035;28;70422;-40
2022/10/09 00:15:12;;;;;;;47.38;34.95;;;;;;;28.47;73.50;101070.22;5016288;28;66360;-40
2022/10/09 00:17:43;;;;;;;50.63;33.53;;;;;;;28.47;73.65;101064.84;5019413;28;69570;-39
2022/10/09 00:20:13;;;;;;;55.83;33.95;;;;;;;28.47;74.75;101070.22;4999082;28;65962;-39
2022/10/09 00:22:44;;;;;;;51.60;35.97;;;;;;;28.55;73.06;101082.69;4999319;28;69433;-50
2022/10/09 00:25:15;;;;;;;50.40;34.15;;;;;;;28.53;74.84;101082.09;5018746;28;67004;-39
2022/10/09 00:27:45;;;;;;;47.28;34.00;;;;;;;28.58;74.85;101086.88;5018958;28;70395;-38
2022/10/09 00:30:16;;;;;;;54.40;36.80;;;;;;;28.62;74.59;101093.56;5017830;28;66074;-39
2022/10/09 00:32:47;;;;;;;51.97;34.55;;;;;;;28.66;75.64;101095.63;5018824;28;70715;-39
2022/10/09 00:35:18;;;;;;;53.83;34.38;;;;;;;28.66;74.42;101095.63;5018309;28;66398;-38
2022/10/09 00:37:48;;;;;;;55.42;37.33;;;;;;;28.68;76.24;101119.72;5014691;28;69928;-38
2022/10/09 00:40:19;;;;;;;65.72;41.88;;;;;;;28.72;75.32;101112.88;5021377;28;66343;-37
2022/10/09 00:42:59;;;;;;;75.32;48.42;;;;;;;28.19;77.21;101028.94;5022451;28;70477;-38
2022/10/09 00:45:30;;;;;;;77.03;46.92;;;;;;;28.73;77.11;101123.50;5020159;28;65660;-38
2022/10/09 00:48:05;;;;;;;72.50;45.58;;;;;;;28.19;77.16;101034.31;5022217;28;69278;-38
2022/10/09 00:50:40;;;;;;;64.50;43.20;;;;;;;28.75;77.22;101136.78;5019994;28;66399;-38
2022/10/09 00:53:15;;;;;;;62.08;40.55;;;;;;;28.72;72.57;101111.06;5022150;28;69984;-38
2022/10/09 00:55:46;;;;;;;51.45;36.20;;;;;;;28.81;71.97;101121.69;5022425;28;66224;-39
2022/10/09 00:58:18;;;;;;;57.20;37.03;;;;;;;28.90;71.61;101133.97;5021191;28;69906;-38
2022/10/09 01:00:49;;;;;;;64.40;36.05;;;;;;;28.92;71.21;101135.44;5021481;28;65279;-38
2022/10/09 01:03:19;;;;;;;56.88;33.58;;;;;;;28.97;71.53;101137.50;5021245;28;70407;-37
2022/10/09 01:06:35;;;;;;;50.75;34.40;;;;;;;28.86;71.56;101144.34;5022111;28;67311;-38
2022/10/09 01:09:25;;;;;;;49.05;34.63;;;;;;;28.45;71.40;101064.19;5019199;28;70472;-38
2022/10/09 01:12:25;;;;;;;48.50;35.08;;;;;;;28.91;71.21;101157.22;5021277;28;65213;-39
2022/10/09 01:15:16;;;;;;;50.35;34.25;;;;;;;28.94;71.57;101149.53;5021478;28;69756;-38
2022/10/09 01:17:53;;;;;;;45.65;34.67;;;;;;;29.07;71.13;101145.28;5022612;28;66485;-38
2022/10/09 01:20:32;;;;;;;47.15;34.92;;;;;;;29.07;71.64;101148.00;5020988;28;69374;-38
2022/10/09 01:23:26;;;;;;;50.80;36.13;;;;;;;29.09;71.32;101151.31;5022302;28;65132;-38
2022/10/09 01:26:09;;;;;;;63.45;38.20;;;;;;;29.00;76.01;101155.19;5019792;28;70239;-37
2022/10/09 01:28:39;;;;;;;;;;;;;;;28.72;78.50;101153.38;5021730;28;65971;-37
2022/10/09 01:31:12;;;;;;;58.30;41.63;;;;;;;28.95;78.15;101143.13;5020284;28;70363;-40
2022/10/09 01:33:44;;;;;;;65.45;41.75;;;;;;;28.88;78.50;101136.03;5021429;28;65976;-39
2022/10/09 01:36:17;;;;;;;55.95;39.38;;;;;;;28.71;79.07;101100.44;5018288;28;69986;-40
2022/10/09 01:38:48;;;;;;;60.92;39.55;;;;;;;28.96;79.21;101150.19;5018905;28;65710;-38
2022/10/09 01:41:20;;;;;;;57.03;41.17;;;;;;;28.55;79.61;101081.88;5021339;28;70086;-37
2022/10/09 01:43:50;;;;;;;60.00;41.25;;;;;;;28.93;78.74;101134.38;5021442;28;66253;-37
2022/10/09 01:46:22;;;;;;;53.35;38.65;;;;;;;29.10;76.37;101144.88;5017889;28;71139;-37
2022/10/09 01:49:08;;;;;;;;;;;;;;;28.74;77.55;101151.31;5020017;28;66046;-36
2022/10/09 01:51:59;;;;;;;41.97;31.30;;;;;;;28.17;75.10;100987.84;5016578;28;70648;-36
2022/10/09 01:54:49;;;;;;;44.10;33.17;;;;;;;28.54;75.09;101058.63;5021278;28;65596;-37
2022/10/09 01:57:31;;;;;;;43.13;33.10;;;;;;;29.17;74.24;101132.25;5019410;28;70229;-37
2022/10/09 02:00:06;;;;;;;41.72;33.33;;;;;;;28.77;74.21;101064.53;5019339;28;65964;-37
2022/10/09 02:02:42;;;;;;;46.47;32.03;;;;;;;29.31;73.74;101152.00;5020467;28;69478;-37
2022/10/09 02:05:22;;;;;;;40.70;31.20;;;;;;;29.32;73.34;101149.09;5017950;28;64723;-36
2022/10/09 02:07:54;;;;;;;38.13;32.05;;;;;;;29.26;73.69;101122.91;5017601;28;70419;-37
2022/10/09 02:10:26;;;;;;;37.63;31.52;;;;;;;29.01;73.47;101073.97;5019768;28;65968;-37
2022/10/09 02:12:59;;;;;;;38.35;31.80;;;;;;;29.40;73.06;101146.22;5020294;28;70753;-36
2022/10/09 02:15:55;;;;;;;40.35;31.63;;;;;;;28.77;73.54;101034.84;5020657;28;66673;-37
2022/10/09 02:18:41;;;;;;;34.83;31.17;;;;;;;29.45;73.34;101128.53;5018663;28;70584;-37
2022/10/09 02:21:21;;;;;;;36.03;30.35;;;;;;;29.13;73.31;101068.84;5003470;28;66349;-38
2022/10/09 02:23:56;;;;;;;35.35;30.10;;;;;;;28.97;73.19;101032.19;5010490;28;70759;-37
2022/10/09 02:26:27;;;;;;;38.15;29.20;;;;;;;29.45;72.61;101098.81;5032905;28;66967;-38
2022/10/09 02:28:58;;;;;;;33.83;29.90;;;;;;;29.55;73.00;101110.06;5020254;28;70094;-37
2022/10/09 02:31:36;;;;;;;35.67;29.03;;;;;;;29.09;72.34;101027.09;5020950;28;66262;-37
2022/10/09 02:34:09;;;;;;;32.58;28.35;;;;;;;29.09;72.18;101014.41;5020428;28;69125;-38
2022/10/09 02:36:40;;;;;;;32.08;28.02;;;;;;;29.51;72.77;101081.81;5019919;28;65896;-37
2022/10/09 02:39:11;;;;;;;30.80;27.50;;;;;;;29.60;72.19;101094.06;5019572;28;70810;-38
2022/10/09 02:41:41;;;;;;;32.63;27.00;;;;;;;29.65;72.25;101090.78;5015778;28;65635;-38
2022/10/09 02:44:12;;;;;;;29.50;26.35;;;;;;;29.65;72.31;101086.22;5024151;28;70530;-36
2022/10/09 02:46:42;;;;;;;31.80;27.10;;;;;;;29.53;72.54;101063.50;5021275;28;66150;-38
2022/10/09 02:49:13;;;;;;;29.95;27.00;;;;;;;29.67;72.70;101086.84;5019227;28;70258;-37
2022/10/09 02:51:43;;;;;;;29.10;26.13;;;;;;;29.68;72.09;101077.69;5021082;28;66259;-36
2022/10/09 02:54:14;;;;;;;29.92;26.42;;;;;;;29.64;72.24;101065.59;5020065;28;70114;-37
2022/10/09 02:56:45;;;;;;;30.23;25.77;;;;;;;29.70;72.55;101075.63;5019700;28;66116;-36
2022/10/09 02:59:15;;;;;;;30.10;26.88;;;;;;;29.71;72.48;101071.84;5020210;28;70277;-37
2022/10/09 03:01:46;;;;;;;28.30;25.35;;;;;;;29.61;72.46;101055.19;5020886;28;66112;-37
2022/10/09 03:04:16;;;;;;;28.73;25.83;;;;;;;29.68;71.97;101056.06;5018166;28;70520;-38
2022/10/09 03:06:47;;;;;;;29.95;26.23;;;;;;;29.72;72.16;101065.41;5020095;28;66675;-37
2022/10/09 03:09:17;;;;;;;28.38;25.38;;;;;;;29.73;72.38;101053.56;5009063;28;70215;-37
2022/10/09 03:11:47;;;;;;;28.38;25.45;;;;;;;29.68;72.16;101039.00;5019637;28;66809;-37
2022/10/09 03:14:18;;;;;;;28.73;25.80;;;;;;;29.75;71.94;101046.06;5020305;28;70188;-37
2022/10/09 03:16:48;;;;;;;33.47;27.35;;;;;;;29.76;72.20;101042.31;5020618;28;66188;-37
2022/10/09 03:19:18;;;;;;;37.60;31.17;;;;;;;29.58;75.86;101042.91;5018316;28;69696;-38
2022/10/09 03:21:49;;;;;;;38.65;32.55;;;;;;;29.45;77.04;101034.81;5018483;28;65574;-37
2022/10/09 03:24:20;;;;;;;34.63;31.05;;;;;;;29.39;76.87;101031.06;5019752;28;69136;-38
2022/10/09 03:26:51;;;;;;;35.07;31.50;;;;;;;29.19;77.45;101003.19;5014548;28;65046;-38
2022/10/09 03:29:21;;;;;;;48.53;32.40;;;;;;;29.22;77.63;101013.56;5015962;28;69189;-38
2022/10/09 03:31:52;;;;;;;36.90;32.97;;;;;;;29.32;77.14;101024.81;5015687;28;65358;-38
2022/10/09 03:34:23;;;;;;;38.60;32.80;;;;;;;29.24;77.82;101019.59;5010203;28;71091;-36
2022/10/09 03:36:54;;;;;;;43.05;30.88;;;;;;;29.25;78.10;101017.72;5012546;28;66882;-38
2022/10/09 03:39:24;;;;;;;43.75;33.63;;;;;;;29.28;78.02;101018.19;5011603;28;68808;-37
2022/10/09 03:41:55;;;;;;;33.38;29.95;;;;;;;29.27;78.12;101008.38;5013180;28;66383;-38
2022/10/09 03:44:25;;;;;;;34.33;29.63;;;;;;;29.24;78.67;100994.47;5014187;28;70359;-37
2022/10/09 03:46:56;;;;;;;38.20;31.10;;;;;;;29.27;78.28;101000.28;5014408;28;65636;-37
2022/10/09 03:49:26;;;;;;;33.67;29.42;;;;;;;29.28;77.96;100991.16;5002619;28;70644;-38
2022/10/09 03:51:57;;;;;;;73.72;30.70;;;;;;;29.19;78.58;100970.75;5014567;28;66599;-39
2022/10/09 03:54:27;;;;;;;54.28;31.65;;;;;;;29.29;77.83;100975.78;5015618;28;69671;-38
2022/10/09 03:56:58;;;;;;;39.58;30.00;;;;;;;29.30;78.96;100972.84;5012618;28;66681;-38
2022/10/09 03:59:29;;;;;;;38.20;28.83;;;;;;;29.28;78.59;100968.69;5015237;28;70604;-37
2022/10/09 04:01:59;;;;;;;37.15;27.27;;;;;;;29.29;78.14;100956.84;5019473;28;65438;-38
2022/10/09 04:04:29;;;;;;;33.65;26.80;;;;;;;29.29;78.34;100956.84;5018506;28;69931;-39
2022/10/09 04:07:00;;;;;;;29.73;25.48;;;;;;;29.29;78.30;100954.97;5019270;28;66134;-39
2022/10/09 04:09:31;;;;;;;36.33;26.65;;;;;;;29.33;76.88;100958.91;5010486;28;69372;-38
2022/10/09 04:12:02;;;;;;;33.08;28.10;;;;;;;29.25;77.89;100956.41;5020793;28;66502;-37
2022/10/09 04:14:33;;;;;;;56.10;31.02;;;;;;;29.27;78.07;100961.63;5019552;28;69377;-37
2022/10/09 04:17:03;;;;;;;46.85;34.40;;;;;;;29.25;78.15;100961.81;5021823;28;66082;-37
2022/10/09 04:19:34;;;;;;;57.25;36.08;;;;;;;29.29;78.71;100965.78;5022345;28;70099;-38
2022/10/09 04:22:04;;;;;;;45.00;35.30;;;;;;;29.31;78.33;100950.22;5023013;28;65780;-37
2022/10/09 04:24:34;;;;;;;55.90;38.38;;;;;;;29.23;77.95;100927.97;5021745;28;70143;-37
2022/10/09 04:27:05;;;;;;;53.28;36.97;;;;;;;29.03;78.01;100887.41;5023553;28;66276;-38
2022/10/09 04:29:36;;;;;;;54.03;35.65;;;;;;;29.32;78.31;100942.94;5022108;28;70813;-37
2022/10/09 04:32:07;;;;;;;37.42;30.38;;;;;;;29.34;78.50;100941.69;5021480;28;66521;-37
2022/10/09 04:34:37;;;;;;;44.42;29.25;;;;;;;29.34;77.68;100941.69;5022266;28;69429;-37
2022/10/09 04:37:08;;;;;;;39.92;26.35;;;;;;;29.30;77.59;100935.03;5022918;28;66156;-38
2022/10/09 04:39:38;;;;;;;25.02;22.33;;;;;;;29.40;77.52;100946.25;5021496;28;70459;-38
2022/10/09 04:42:09;;;;;;;23.70;19.45;;;;;;;29.41;77.96;100947.06;5022950;28;66438;-37
2022/10/09 04:44:39;;;;;;;19.30;17.40;;;;;;;29.54;76.81;100940.84;5022231;28;69400;-38
2022/10/09 04:47:10;;;;;;;18.75;17.05;;;;;;;29.37;76.05;100903.44;5022048;28;66764;-38
2022/10/09 04:49:41;;;;;;;19.02;17.02;;;;;;;29.61;76.07;100920.00;5022464;28;69666;-38
2022/10/09 04:52:11;;;;;;;19.48;16.23;;;;;;;29.78;75.56;100937.50;5022643;28;66910;-38
2022/10/09 04:54:41;;;;;;;18.50;16.63;;;;;;;29.86;75.51;100938.31;5018671;28;71134;-38
2022/10/09 04:57:12;;;;;;;21.23;16.75;;;;;;;29.91;74.72;100941.22;5022312;28;66320;-37
2022/10/09 04:59:43;;;;;;;19.43;16.83;;;;;;;29.90;74.85;100934.97;5014799;28;69947;-37
2022/10/09 05:02:14;;;;;;;17.38;15.63;;;;;;;30.00;74.37;100945.34;5017723;28;65385;-37
2022/10/09 05:04:46;;;;;;;16.52;15.02;;;;;;;30.05;74.18;100948.22;5019115;28;68994;-38
2022/10/09 05:07:16;;;;;;;15.48;14.18;;;;;;;30.05;74.15;100948.22;5017771;28;66189;-38
2022/10/09 05:09:47;;;;;;;15.80;14.50;;;;;;;30.07;74.21;100951.56;5020956;28;69928;-38
2022/10/09 05:12:18;;;;;;;15.50;14.30;;;;;;;29.94;75.32;100951.59;5017805;28;66670;-37
2022/10/09 05:14:48;;;;;;;15.82;14.35;;;;;;;29.81;75.41;100942.50;5019687;28;70318;-38
2022/10/09 05:17:19;;;;;;;15.02;13.75;;;;;;;29.91;75.84;100957.44;5020164;28;66522;-38
2022/10/09 05:19:52;;;;;;;14.23;12.90;;;;;;;29.92;75.28;100964.50;5020445;28;70227;-38
2022/10/09 05:22:22;;;;;;;12.73;11.57;;;;;;;29.77;75.98;100941.22;5020036;28;66573;-37
2022/10/09 05:24:52;;;;;;;12.60;11.85;;;;;;;29.94;75.78;100952.41;5021565;28;70089;-38
2022/10/09 05:27:23;;;;;;;14.07;11.48;;;;;;;29.84;76.35;100942.06;5016436;28;65394;-37
2022/10/09 05:29:54;;;;;;;12.50;11.07;;;;;;;30.00;76.07;100956.97;5018488;28;70477;-37
2022/10/09 05:32:24;;;;;;;14.05;9.60;;;;;;;30.04;76.17;100952.00;5016893;28;65374;-36
2022/10/09 05:34:55;;;;;;;16.58;9.75;;;;;;;30.08;76.00;100947.81;5015816;28;69371;-37
2022/10/09 05:37:26;;;;;;;10.32;9.60;;;;;;;30.08;76.24;100942.38;5017988;28;67134;-37
2022/10/09 05:39:56;;;;;;;9.82;9.13;;;;;;;29.91;75.49;100919.56;5014957;28;70426;-38
2022/10/09 05:42:27;;;;;;;8.98;8.20;;;;;;;29.70;74.37;100880.97;5015167;28;66058;-37
2022/10/09 05:44:57;;;;;;;9.32;8.45;;;;;;;29.92;73.30;100916.66;4998945;28;70977;-38
2022/10/09 05:47:29;;;;;;;8.55;7.70;;;;;;;29.48;71.85;100847.09;5001741;28;65343;-38
2022/10/09 05:50:00;;;;;;;11.27;7.65;;;;;;;29.85;71.04;100915.84;5015636;28;70192;-37
2022/10/09 05:52:31;;;;;;;9.40;6.97;;;;;;;29.81;69.60;100915.44;4998580;28;65304;-37
2022/10/09 05:55:02;;;;;;;10.43;6.57;;;;;;;29.93;69.87;100914.78;5013148;28;70058;-38
2022/10/09 05:57:34;;;;;;;9.35;6.53;;;;;;;29.91;68.64;100908.75;5018663;28;43088;-36
2022/10/09 06:00:05;;;;;;;9.77;6.45;;;;;;;29.74;68.82;100882.19;5018255;28;71305;-37
2022/10/09 06:02:40;;;;;;;8.93;6.32;;;;;;;29.82;68.27;100902.75;5011580;28;65747;-38
2022/10/09 06:05:10;;;;;;;6.60;6.10;;;;;;;29.75;67.29;100893.81;5017565;28;69268;-37
2022/10/09 06:07:41;;;;;;;6.57;5.97;;;;;;;29.75;66.37;100891.09;5019395;28;66349;-37
2022/10/09 06:10:12;;;;;;;7.30;5.57;;;;;;;29.69;65.80;100884.69;5020331;28;70282;-38
2022/10/09 06:12:42;;;;;;;6.68;6.20;;;;;;;29.49;65.54;100860.38;5020676;28;65351;-37
2022/10/09 06:15:13;;;;;;;6.43;5.93;;;;;;;29.60;64.89;100875.94;5020884;28;70131;-37
2022/10/09 06:17:43;;;;;;;6.53;6.00;;;;;;;29.58;64.18;100869.09;5021151;28;65728;-38
2022/10/09 06:20:14;;;;;;;9.82;6.38;;;;;;;29.56;63.60;100869.31;5019474;28;70523;-36
2022/10/09 06:22:46;;;;;;;6.40;5.90;;;;;;;29.49;62.73;100864.97;5003509;28;65692;-36
2022/10/09 06:25:17;;;;;;;6.82;6.32;;;;;;;29.50;62.76;100863.91;5020230;28;69912;-37
2022/10/09 06:27:47;;;;;;;6.80;6.38;;;;;;;29.47;61.67;100861.63;5020628;28;66435;-36
2022/10/09 06:30:17;;;;;;;7.50;6.40;;;;;;;29.47;61.62;100858.94;5010556;28;69691;-38
2022/10/09 06:32:48;;;;;;;6.75;6.25;;;;;;;29.44;61.64;100859.34;5004431;28;66122;-38
2022/10/09 06:35:19;;;;;;;6.70;6.30;;;;;;;29.39;61.13;100850.03;5021025;28;69892;-37
2022/10/09 06:37:50;;;;;;;7.25;6.72;;;;;;;29.30;60.69;100832.34;5020702;28;65685;-38
2022/10/09 06:40:20;;;;;;;7.85;7.15;;;;;;;29.38;59.84;100840.22;5018401;28;70652;-37
2022/10/09 06:42:50;;;;;;;6.65;6.25;;;;;;;29.36;60.03;100836.94;5017873;28;66474;-37
2022/10/09 06:45:23;;;;;;;7.25;6.85;;;;;;;29.35;59.24;100834.44;5023948;28;69713;-37
2022/10/09 06:48:22;;;;;;;7.63;7.13;;;;;;;29.34;58.88;100822.78;5012077;28;66196;-37
2022/10/09 06:50:52;;;;;;;7.80;7.10;;;;;;;29.34;59.24;100820.09;5018621;28;68904;-37
2022/10/09 06:53:23;;;;;;;7.47;6.75;;;;;;;29.31;58.86;100811.56;5018341;28;65637;-37
2022/10/09 06:55:56;;;;;;;8.07;7.57;;;;;;;29.34;58.63;100813.88;5002258;28;71768;-37
2022/10/09 06:58:27;;;;;;;7.75;7.15;;;;;;;29.35;58.24;100802.84;5017231;28;65615;-37
2022/10/09 07:01:13;;;;;;;7.70;7.13;;;;;;;28.35;55.21;100653.59;5019026;28;70082;-39
2022/10/09 07:03:47;;;;;;;7.88;7.25;;;;;;;28.43;57.06;100648.03;5018014;28;66791;-37
2022/10/09 07:06:22;;;;;;;12.80;7.25;;;;;;;28.81;54.86;100704.03;5016378;28;70842;-38
2022/10/09 07:09:00;;;;;;;10.00;7.80;;;;;;;28.91;56.23;100709.81;5020682;28;66859;-38
2022/10/09 07:11:51;;;;;;;9.82;7.32;;;;;;;29.21;54.65;100774.19;5018238;28;69908;-36
2022/10/09 07:14:22;;;;;;;7.68;6.97;;;;;;;29.31;56.84;100763.78;5011823;28;65430;-38
2022/10/09 07:16:52;;;;;;;8.07;7.47;;;;;;;29.31;56.31;100763.78;5014084;28;69711;-37
2022/10/09 07:19:23;;;;;;;7.72;6.85;;;;;;;29.30;56.00;100751.28;5019400;28;66681;-38
2022/10/09 07:21:53;;;;;;;8.50;7.65;;;;;;;29.28;55.64;100748.00;5018158;28;70448;-37
2022/10/09 07:24:24;;;;;;;8.88;8.27;;;;;;;29.28;56.11;100745.28;5017697;28;65337;-38
2022/10/09 07:26:56;;;;;;;7.95;7.35;;;;;;;29.21;55.76;100725.56;5014968;28;69512;-38
2022/10/09 07:29:26;;;;;;;7.90;7.10;;;;;;;29.24;55.41;100730.53;5010891;28;66754;-37
2022/10/09 07:31:57;;;;;;;8.50;8.00;;;;;;;29.27;55.65;100723.88;5013287;28;70536;-37
2022/10/09 07:34:27;;;;;;;8.43;7.75;;;;;;;29.27;54.85;100718.47;5011061;28;66119;-39
2022/10/09 07:36:57;;;;;;;7.65;7.05;;;;;;;29.27;54.54;100718.47;5016341;28;70230;-36
2022/10/09 07:39:29;;;;;;;8.47;7.87;;;;;;;29.25;54.78;100710.56;5017752;28;66164;-37
2022/10/09 07:41:59;;;;;;;7.57;7.07;;;;;;;29.27;54.83;100703.09;5010188;28;69790;-37
2022/10/09 07:44:30;;;;;;;7.55;7.15;;;;;;;29.13;54.42;100674.47;5017925;28;66120;-36
2022/10/09 07:47:00;;;;;;;8.30;7.68;;;;;;;29.28;54.34;100688.56;5021153;28;69749;-36
2022/10/09 07:49:31;;;;;;;9.32;6.97;;;;;;;29.32;53.78;100694.34;5020599;28;66219;-37
2022/10/09 07:52:01;;;;;;;7.90;7.30;;;;;;;29.33;53.74;100685.19;5017759;28;70013;-37
2022/10/09 07:54:32;;;;;;;7.72;7.30;;;;;;;29.34;53.33;100676.06;5020198;28;65608;-37
2022/10/09 07:57:02;;;;;;;8.20;7.60;;;;;;;29.35;53.81;100677.72;5020610;28;70166;-38
2022/10/09 07:59:33;;;;;;;7.63;7.22;;;;;;;29.37;53.50;100684.56;5016879;28;66203;-38
2022/10/09 08:02:03;;;;;;;10.85;8.18;;;;;;;29.34;52.72;100671.50;5019511;28;70487;-39
2022/10/09 08:04:36;;;;;;;8.13;7.53;;;;;;;28.95;52.47;100608.47;5014822;28;66623;-38
2022/10/09 08:07:07;;;;;;;8.27;7.60;;;;;;;29.37;53.10;100665.66;5019451;28;70315;-37
2022/10/09 08:09:38;;;;;;;7.65;7.13;;;;;;;29.37;52.50;100676.47;5022041;28;66194;-38
2022/10/09 08:12:09;;;;;;;7.32;6.82;;;;;;;29.37;52.34;100672.94;5021176;28;70083;-37
2022/10/09 08:14:39;;;;;;;8.40;7.60;;;;;;;29.39;52.33;100668.97;5021223;28;66116;-39
2022/10/09 08:17:11;;;;;;;8.48;7.80;;;;;;;29.32;51.64;100661.94;5018854;28;70119;-38
2022/10/09 08:19:41;;;;;;;8.68;7.22;;;;;;;29.39;51.90;100674.38;5021141;28;65537;-37
2022/10/09 08:22:12;;;;;;;7.68;6.97;;;;;;;29.42;51.52;100661.47;5020039;28;69720;-37
2022/10/09 08:24:42;;;;;;;8.10;7.60;;;;;;;29.36;51.43;100652.34;5020824;28;66277;-38
2022/10/09 08:27:13;;;;;;;7.80;7.30;;;;;;;29.39;51.77;100655.47;5018239;28;70474;-37
2022/10/09 08:29:44;;;;;;;8.32;7.72;;;;;;;29.39;51.70;100641.09;5018778;28;66058;-38
2022/10/09 08:32:14;;;;;;;8.45;7.95;;;;;;;29.43;51.68;100652.34;5020232;28;70302;-38
2022/10/09 08:34:46;;;;;;;9.73;8.18;;;;;;;29.28;51.57;100614.78;5021064;28;65403;-37
2022/10/09 08:37:17;;;;;;;8.98;8.27;;;;;;;29.46;51.89;100646.50;5015457;28;69524;-39
2022/10/09 08:39:48;;;;;;;8.88;8.25;;;;;;;29.47;51.25;100645.44;5021129;28;66571;-38
2022/10/09 08:42:41;;;;;;;9.25;8.45;;;;;;;29.16;50.25;100609.22;5020753;28;70565;-38
2022/10/09 08:45:16;;;;;;;9.18;8.48;;;;;;;28.93;50.19;100561.13;5019661;28;65352;-39
2022/10/09 08:47:55;;;;;;;9.38;8.70;;;;;;;29.49;49.85;100659.56;5020072;28;70135;-38
2022/10/09 08:50:31;;;;;;;9.70;8.68;;;;;;;29.45;49.68;100650.22;5022366;28;65386;-37
2022/10/09 08:53:04;;;;;;;11.13;8.90;;;;;;;29.25;49.90;100621.44;5020434;28;69867;-36
2022/10/09 08:55:51;;;;;;;9.40;8.68;;;;;;;29.40;49.29;100654.41;5020504;28;66762;-36
2022/10/09 08:58:24;;;;;;;9.88;8.98;;;;;;;29.56;49.96;100666.59;5020745;28;70312;-36
2022/10/09 09:01:04;;;;;;;9.75;9.02;;;;;;;29.07;48.71;100584.34;5021843;28;66141;-37
2022/10/09 09:03:46;;;;;;;12.75;9.70;;;;;;;29.60;50.00;100669.69;5022016;28;70211;-36
2022/10/09 09:06:34;;;;;;;10.70;9.77;;;;;;;29.59;48.93;100654.53;5020829;28;66668;-38
2022/10/09 09:09:38;;;;;;;10.13;9.52;;;;;;;29.56;48.60;100657.63;5018491;28;69992;-37
2022/10/09 09:12:14;;;;;;;10.32;9.45;;;;;;;29.67;50.32;100657.00;5020929;28;65561;-37
2022/10/09 09:14:55;;;;;;;10.38;9.52;;;;;;;29.09;48.26;100560.66;5020664;28;69477;-37
2022/10/09 09:17:47;;;;;;;11.20;10.10;;;;;;;29.62;48.42;100667.59;5009896;28;66366;-36
2022/10/09 09:20:24;;;;;;;11.35;9.95;;;;;;;29.71;48.88;100669.03;5019422;28;69254;-37
2022/10/09 09:22:58;;;;;;;10.65;9.85;;;;;;;29.71;49.20;100685.25;5020219;28;65564;-36
2022/10/09 09:25:34;;;;;;;10.95;10.23;;;;;;;29.67;48.94;100659.72;5011762;28;69586;-36
2022/10/09 09:28:34;;;;;;;11.18;10.30;;;;;;;29.62;48.62;100671.13;5020758;28;65224;-38
2022/10/09 09:31:27;;;;;;;10.77;9.80;;;;;;;29.38;48.52;100637.56;5021225;28;70068;-38
2022/10/09 09:33:58;;;;;;;11.77;10.60;;;;;;;29.76;49.73;100690.03;5000747;28;66568;-36
2022/10/09 09:36:38;;;;;;;26.42;10.23;;;;;;;29.63;49.42;100672.00;5018353;28;69543;-37
2022/10/09 09:39:13;;;;;;;13.48;9.63;;;;;;;29.95;49.69;100704.44;5019875;28;65578;-36
2022/10/09 09:42:13;;;;;;;17.77;10.32;;;;;;;29.45;50.51;100617.78;5020239;28;69669;-37
2022/10/09 09:45:21;;;;;;;12.18;9.98;;;;;;;30.01;50.67;100714.41;5021077;28;66062;-37
2022/10/09 09:47:56;;;;;;;20.55;9.88;;;;;;;30.24;51.74;100736.31;5019415;28;70441;-36
2022/10/09 09:50:36;;;;;;;10.98;9.57;;;;;;;30.36;51.69;100732.91;5020564;28;66444;-36
2022/10/09 09:53:36;;;;;;;13.70;9.55;;;;;;;30.34;52.44;100734.97;5012222;28;69721;-38
2022/10/09 09:56:13;;;;;;;18.08;10.30;;;;;;;30.24;52.79;100714.66;5019935;28;66887;-38
2022/10/09 09:58:49;;;;;;;11.23;10.00;;;;;;;30.57;53.56;100765.00;5019508;28;70001;-38
2022/10/09 10:01:21;;;;;;;11.27;10.15;;;;;;;30.62;55.04;100781.41;5021353;28;66112;-36
2022/10/09 10:03:58;;;;;;;17.00;14.90;;;;;;;29.98;62.51;100690.50;5021935;28;70222;-35
2022/10/09 10:06:34;;;;;;;19.25;15.27;;;;;;;29.95;64.75;100682.78;5019785;28;64602;-36
2022/10/09 10:09:14;;;;;;;21.25;15.00;;;;;;;30.05;65.90;100688.56;5020402;28;69648;-38
2022/10/09 10:12:02;;;;;;;18.60;16.75;;;;;;;30.25;67.54;100737.13;5020857;28;66401;-35
2022/10/09 10:14:34;;;;;;;24.77;17.55;;;;;;;30.34;68.80;100735.84;5020641;28;69496;-36
2022/10/09 10:17:04;;;;;;;17.93;16.13;;;;;;;30.32;68.55;100748.75;5020081;28;66573;-35
2022/10/09 10:19:37;;;;;;;18.08;16.30;;;;;;;30.36;68.76;100763.47;5017888;28;69583;-35
2022/10/09 10:22:23;;;;;;;21.40;15.90;;;;;;;29.97;69.20;100722.09;5015742;28;65387;-36
2022/10/09 10:24:58;;;;;;;16.67;15.18;;;;;;;30.33;69.11;100793.69;5018313;28;70122;-37
2022/10/09 10:27:39;;;;;;;21.45;16.17;;;;;;;30.34;69.63;100799.94;5004264;28;65679;-36
2022/10/09 10:30:17;;;;;;;18.15;16.13;;;;;;;30.24;70.80;100776.06;5012724;28;68338;-38
2022/10/09 10:32:55;;;;;;;17.30;15.63;;;;;;;30.34;71.54;100789.09;5014084;28;66427;-37
2022/10/09 10:35:43;;;;;;;17.92;16.25;;;;;;;29.76;71.53;100709.75;5018491;28;69409;-37
2022/10/09 10:38:14;;;;;;;18.27;15.50;;;;;;;30.34;72.20;100803.50;5018809;28;66507;-37
2022/10/09 10:41:02;;;;;;;24.17;15.73;;;;;;;29.89;72.20;100764.81;5014716;28;70253;-37
2022/10/09 10:43:43;;;;;;;18.20;16.27;;;;;;;30.34;71.95;100843.22;5016944;28;66188;-37
2022/10/09 10:46:37;;;;;;;17.27;15.48;;;;;;;30.16;72.74;100820.41;5015142;28;69478;-37
2022/10/09 10:49:10;;;;;;;23.65;15.02;;;;;;;29.99;72.63;100770.59;5016044;28;65633;-36
2022/10/09 10:51:41;;;;;;;19.48;15.70;;;;;;;30.33;72.49;100825.34;5014744;28;69482;-36
2022/10/09 10:54:26;;;;;;;19.23;16.63;;;;;;;30.34;72.51;100822.44;4999373;28;65648;-36
2022/10/09 10:57:06;;;;;;;18.42;16.52;;;;;;;30.28;73.06;100813.31;5016158;28;69938;-37
2022/10/09 11:00:05;;;;;;;21.67;17.42;;;;;;;30.24;73.11;100812.06;5015835;28;65649;-37
2022/10/09 11:03:21;;;;;;;32.33;17.85;;;;;;;30.25;73.73;100807.47;5014894;28;68882;-43
2022/10/09 11:06:06;;;;;;;26.10;19.48;;;;;;;30.28;74.16;100817.88;5015524;28;66428;-38
2022/10/09 11:09:04;;;;;;;21.58;19.38;;;;;;;29.72;74.73;100743.66;5017219;28;70028;-42
2022/10/09 11:11:38;;;;;;;27.30;20.70;;;;;;;30.30;74.55;100840.13;5017465;28;66270;-37
2022/10/09 11:14:22;;;;;;;21.40;19.15;;;;;;;30.26;75.10;100853.28;5008451;28;69623;-37
2022/10/09 11:16:56;;;;;;;24.50;20.42;;;;;;;30.28;74.72;100862.03;5020537;28;65423;-36
2022/10/09 11:19:58;;;;;;;20.20;18.20;;;;;;;30.13;75.45;100864.13;5019173;28;69259;-37
2022/10/09 11:22:48;;;;;;;;;;;;;;;30.01;75.68;100892.91;5013755;28;65722;-36
2022/10/09 11:25:45;;;;;;;20.48;18.50;;;;;;;29.93;75.10;100852.59;5009755;28;70619;-36
2022/10/09 11:28:26;;;;;;;23.70;17.10;;;;;;;30.19;75.49;100881.38;5018327;28;66675;-37
2022/10/09 11:31:15;;;;;;;20.33;15.95;;;;;;;30.20;75.07;100897.41;5002666;28;70187;-36
2022/10/09 11:33:50;;;;;;;21.23;16.13;;;;;;;29.80;75.31;100821.84;5018572;28;66244;-37
2022/10/09 11:36:37;;;;;;;16.70;15.15;;;;;;;30.19;75.65;100900.31;5019266;28;69346;-37
2022/10/09 11:39:25;;;;;;;15.15;13.65;;;;;;;30.09;76.02;100911.59;5015324;28;66444;-37
2022/10/09 11:41:57;;;;;;;19.08;11.23;;;;;;;30.20;75.90;100939.84;5012679;28;69267;-38
2022/10/09 11:44:45;;;;;;;12.60;11.50;;;;;;;30.19;76.09;100944.44;5018166;28;66240;-38
2022/10/09 11:47:36;;;;;;;12.73;11.50;;;;;;;30.19;76.11;100966.06;4984758;28;69817;-38
2022/10/09 11:50:38;;;;;;;11.43;10.40;;;;;;;29.71;76.35;100912.34;5019093;28;65935;-39